sensor_id;sensor_type;location;lat;lon;timestamp;temperature;humidity
26224;DHT22;14820;48.682;8.890;2022-07-17T00:00:42;14.30;99.90
26224;DHT22;14820;48.682;8.890;2022-07-17T00:03:12;14.30;99.90
26224;DHT22;14820;48.682;8.890;2022-07-17T00:05:39;14.20;99.90
26224;DHT22;14820;48.682;8.890;2022-07-17T00:08:05;14.20;99.90
26224;DHT22;14820;48.682;8.890;2022-07-17T00:10:32;14.10;99.90
26224;DHT22;14820;48.682;8.890;2022-07-17T00:12:58;14.10;99.90
26224;DHT22;14820;48.682;8.890;2022-07-17T00:15:24;14.10;99.90
26224;DHT22;14820;48.682;8.890;2022-07-17T00:17:49;14.00;99.90
26224;DHT22;14820;48.682;8.890;2022-07-17T00:20:15;13.90;99.90
26224;DHT22;14820;48.682;8.890;2022-07-17T00:22:41;13.80;99.90
26224;DHT22;14820;48.682;8.890;2022-07-17T00:25:09;13.90;99.90
26224;DHT22;14820;48.682;8.890;2022-07-17T00:27:36;13.90;99.90
26224;DHT22;14820;48.682;8.890;2022-07-17T00:30:03;13.90;99.90
26224;DHT22;14820;48.682;8.890;2022-07-17T00:32:29;13.90;99.90
26224;DHT22;14820;48.682;8.890;2022-07-17T00:34:54;13.90;99.90
26224;DHT22;14820;48.682;8.890;2022-07-17T00:37:20;13.90;99.90
26224;DHT22;14820;48.682;8.890;2022-07-17T00:39:46;13.80;99.90
26224;DHT22;14820;48.682;8.890;2022-07-17T00:42:13;13.80;99.90
26224;DHT22;14820;48.682;8.890;2022-07-17T00:44:40;13.70;99.90
26224;DHT22;14820;48.682;8.890;2022-07-17T00:47:19;13.70;99.90
26224;DHT22;14820;48.682;8.890;2022-07-17T00:49:46;13.70;99.90
26224;DHT22;14820;48.682;8.890;2022-07-17T00:52:13;13.60;99.90
26224;DHT22;14820;48.682;8.890;2022-07-17T00:54:40;13.60;99.90
26224;DHT22;14820;48.682;8.890;2022-07-17T00:57:08;13.60;99.90
26224;DHT22;14820;48.682;8.890;2022-07-17T00:59:34;13.50;99.90
26224;DHT22;14820;48.682;8.890;2022-07-17T01:02:04;13.50;99.90
26224;DHT22;14820;48.682;8.890;2022-07-17T01:04:31;13.50;99.90
26224;DHT22;14820;48.682;8.890;2022-07-17T01:06:57;13.50;99.90
26224;DHT22;14820;48.682;8.890;2022-07-17T01:09:23;13.50;99.90
26224;DHT22;14820;48.682;8.890;2022-07-17T01:11:49;13.50;99.90
26224;DHT22;14820;48.682;8.890;2022-07-17T01:14:16;13.40;99.90
26224;DHT22;14820;48.682;8.890;2022-07-17T01:16:43;13.40;99.90
26224;DHT22;14820;48.682;8.890;2022-07-17T01:19:10;13.40;99.90
26224;DHT22;14820;48.682;8.890;2022-07-17T01:21:41;13.40;99.90
26224;DHT22;14820;48.682;8.890;2022-07-17T01:24:07;13.30;99.90
26224;DHT22;14820;48.682;8.890;2022-07-17T01:26:33;13.20;99.90
26224;DHT22;14820;48.682;8.890;2022-07-17T01:28:59;13.20;99.90
26224;DHT22;14820;48.682;8.890;2022-07-17T01:31:24;13.10;99.90
26224;DHT22;14820;48.682;8.890;2022-07-17T01:33:50;13.10;99.90
26224;DHT22;14820;48.682;8.890;2022-07-17T01:36:16;13.10;99.90
26224;DHT22;14820;48.682;8.890;2022-07-17T01:38:46;13.10;99.90
26224;DHT22;14820;48.682;8.890;2022-07-17T01:41:12;13.00;99.90
26224;DHT22;14820;48.682;8.890;2022-07-17T01:43:38;13.00;99.90
26224;DHT22;14820;48.682;8.890;2022-07-17T01:46:04;13.00;99.90
26224;DHT22;14820;48.682;8.890;2022-07-17T01:48:30;13.00;99.90
26224;DHT22;14820;48.682;8.890;2022-07-17T01:50:56;12.90;99.90
26224;DHT22;14820;48.682;8.890;2022-07-17T01:53:21;12.90;99.90
26224;DHT22;14820;48.682;8.890;2022-07-17T01:55:47;12.90;99.90
26224;DHT22;14820;48.682;8.890;2022-07-17T01:58:14;12.90;99.90
26224;DHT22;14820;48.682;8.890;2022-07-17T02:00:40;12.90;99.90
26224;DHT22;14820;48.682;8.890;2022-07-17T02:03:06;12.90;99.90
26224;DHT22;14820;48.682;8.890;2022-07-17T02:05:31;12.80;99.90
26224;DHT22;14820;48.682;8.890;2022-07-17T02:07:57;12.80;99.90
26224;DHT22;14820;48.682;8.890;2022-07-17T02:10:23;12.80;99.90
26224;DHT22;14820;48.682;8.890;2022-07-17T02:12:49;12.70;99.90
26224;DHT22;14820;48.682;8.890;2022-07-17T02:15:14;12.70;99.90
26224;DHT22;14820;48.682;8.890;2022-07-17T02:17:41;12.70;99.90
26224;DHT22;14820;48.682;8.890;2022-07-17T02:20:07;12.70;99.90
26224;DHT22;14820;48.682;8.890;2022-07-17T02:22:34;12.70;99.90
26224;DHT22;14820;48.682;8.890;2022-07-17T02:25:00;12.70;99.90
26224;DHT22;14820;48.682;8.890;2022-07-17T02:27:25;12.70;99.90
26224;DHT22;14820;48.682;8.890;2022-07-17T02:29:51;12.70;99.90
26224;DHT22;14820;48.682;8.890;2022-07-17T02:32:17;12.70;99.90
26224;DHT22;14820;48.682;8.890;2022-07-17T02:34:42;12.60;99.90
26224;DHT22;14820;48.682;8.890;2022-07-17T02:37:08;12.60;99.90
26224;DHT22;14820;48.682;8.890;2022-07-17T02:39:34;12.60;99.90
26224;DHT22;14820;48.682;8.890;2022-07-17T02:41:59;12.50;99.90
26224;DHT22;14820;48.682;8.890;2022-07-17T02:44:25;12.50;99.90
26224;DHT22;14820;48.682;8.890;2022-07-17T02:46:51;12.50;99.90
26224;DHT22;14820;48.682;8.890;2022-07-17T02:49:17;12.50;99.90
26224;DHT22;14820;48.682;8.890;2022-07-17T02:51:42;12.40;99.90
26224;DHT22;14820;48.682;8.890;2022-07-17T02:54:08;12.40;99.90
26224;DHT22;14820;48.682;8.890;2022-07-17T02:56:34;12.40;99.90
26224;DHT22;14820;48.682;8.890;2022-07-17T02:58:59;12.30;99.90
26224;DHT22;14820;48.682;8.890;2022-07-17T03:01:25;12.30;99.90
26224;DHT22;14820;48.682;8.890;2022-07-17T03:03:50;12.20;99.90
26224;DHT22;14820;48.682;8.890;2022-07-17T03:06:16;12.20;99.90
26224;DHT22;14820;48.682;8.890;2022-07-17T03:08:42;12.20;99.90
26224;DHT22;14820;48.682;8.890;2022-07-17T03:11:07;12.10;99.90
26224;DHT22;14820;48.682;8.890;2022-07-17T03:13:33;12.00;99.90
26224;DHT22;14820;48.682;8.890;2022-07-17T03:15:59;12.00;99.90
26224;DHT22;14820;48.682;8.890;2022-07-17T03:18:24;12.00;99.90
26224;DHT22;14820;48.682;8.890;2022-07-17T03:20:50;12.00;99.90
26224;DHT22;14820;48.682;8.890;2022-07-17T03:23:15;11.90;99.90
26224;DHT22;14820;48.682;8.890;2022-07-17T03:25:41;11.90;99.90
26224;DHT22;14820;48.682;8.890;2022-07-17T03:28:07;11.90;99.90
26224;DHT22;14820;48.682;8.890;2022-07-17T03:30:32;11.80;99.90
26224;DHT22;14820;48.682;8.890;2022-07-17T03:32:58;11.90;99.90
26224;DHT22;14820;48.682;8.890;2022-07-17T03:35:24;11.80;99.90
26224;DHT22;14820;48.682;8.890;2022-07-17T03:37:49;11.80;99.90
26224;DHT22;14820;48.682;8.890;2022-07-17T03:40:15;11.80;99.90
26224;DHT22;14820;48.682;8.890;2022-07-17T03:42:41;11.80;99.90
26224;DHT22;14820;48.682;8.890;2022-07-17T03:45:07;11.70;99.90
26224;DHT22;14820;48.682;8.890;2022-07-17T03:47:33;11.80;99.90
26224;DHT22;14820;48.682;8.890;2022-07-17T03:49:59;11.70;99.90
26224;DHT22;14820;48.682;8.890;2022-07-17T03:52:24;11.80;99.90
26224;DHT22;14820;48.682;8.890;2022-07-17T03:54:50;11.70;99.90
26224;DHT22;14820;48.682;8.890;2022-07-17T03:57:16;11.70;99.90
26224;DHT22;14820;48.682;8.890;2022-07-17T03:59:41;11.80;99.90
26224;DHT22;14820;48.682;8.890;2022-07-17T04:02:07;11.70;99.90
26224;DHT22;14820;48.682;8.890;2022-07-17T04:04:32;11.60;99.90
26224;DHT22;14820;48.682;8.890;2022-07-17T04:06:58;11.60;99.90
26224;DHT22;14820;48.682;8.890;2022-07-17T04:09:24;11.60;99.90
26224;DHT22;14820;48.682;8.890;2022-07-17T04:11:49;11.60;99.90
26224;DHT22;14820;48.682;8.890;2022-07-17T04:14:15;11.70;99.90
26224;DHT22;14820;48.682;8.890;2022-07-17T04:16:41;11.70;99.90
26224;DHT22;14820;48.682;8.890;2022-07-17T04:19:06;11.70;99.90
26224;DHT22;14820;48.682;8.890;2022-07-17T04:21:32;11.70;99.90
26224;DHT22;14820;48.682;8.890;2022-07-17T04:23:58;11.70;99.90
26224;DHT22;14820;48.682;8.890;2022-07-17T04:26:23;11.70;99.90
26224;DHT22;14820;48.682;8.890;2022-07-17T04:28:49;11.60;99.90
26224;DHT22;14820;48.682;8.890;2022-07-17T04:31:15;11.60;99.90
26224;DHT22;14820;48.682;8.890;2022-07-17T04:33:40;11.60;99.90
26224;DHT22;14820;48.682;8.890;2022-07-17T04:36:06;11.70;99.90
26224;DHT22;14820;48.682;8.890;2022-07-17T04:38:32;11.70;99.90
26224;DHT22;14820;48.682;8.890;2022-07-17T04:40:57;11.70;99.90
26224;DHT22;14820;48.682;8.890;2022-07-17T04:43:23;11.80;99.90
26224;DHT22;14820;48.682;8.890;2022-07-17T04:45:49;11.80;99.90
26224;DHT22;14820;48.682;8.890;2022-07-17T04:48:14;11.80;99.90
26224;DHT22;14820;48.682;8.890;2022-07-17T04:50:40;11.80;99.90
26224;DHT22;14820;48.682;8.890;2022-07-17T04:53:06;11.90;99.90
26224;DHT22;14820;48.682;8.890;2022-07-17T04:55:32;11.90;99.90
26224;DHT22;14820;48.682;8.890;2022-07-17T04:57:58;12.00;99.90
26224;DHT22;14820;48.682;8.890;2022-07-17T05:00:23;12.00;99.90
26224;DHT22;14820;48.682;8.890;2022-07-17T05:02:49;12.00;99.90
26224;DHT22;14820;48.682;8.890;2022-07-17T05:05:15;12.00;99.90
26224;DHT22;14820;48.682;8.890;2022-07-17T05:07:41;12.10;99.90
26224;DHT22;14820;48.682;8.890;2022-07-17T05:10:06;12.10;99.90
26224;DHT22;14820;48.682;8.890;2022-07-17T05:12:34;12.20;99.90
26224;DHT22;14820;48.682;8.890;2022-07-17T05:15:00;12.20;99.90
26224;DHT22;14820;48.682;8.890;2022-07-17T05:17:26;12.30;99.90
26224;DHT22;14820;48.682;8.890;2022-07-17T05:19:51;12.30;99.90
26224;DHT22;14820;48.682;8.890;2022-07-17T05:22:17;12.40;99.90
26224;DHT22;14820;48.682;8.890;2022-07-17T05:24:43;12.50;99.90
26224;DHT22;14820;48.682;8.890;2022-07-17T05:27:08;12.60;99.90
26224;DHT22;14820;48.682;8.890;2022-07-17T05:29:34;12.70;99.90
26224;DHT22;14820;48.682;8.890;2022-07-17T05:32:00;12.80;99.90
26224;DHT22;14820;48.682;8.890;2022-07-17T05:34:26;12.80;99.90
26224;DHT22;14820;48.682;8.890;2022-07-17T05:36:51;13.00;99.90
26224;DHT22;14820;48.682;8.890;2022-07-17T05:39:17;13.00;99.90
26224;DHT22;14820;48.682;8.890;2022-07-17T05:41:43;13.10;99.90
26224;DHT22;14820;48.682;8.890;2022-07-17T05:44:08;13.20;99.90
26224;DHT22;14820;48.682;8.890;2022-07-17T05:46:34;13.30;99.90
26224;DHT22;14820;48.682;8.890;2022-07-17T05:49:00;13.40;99.90
26224;DHT22;14820;48.682;8.890;2022-07-17T05:51:25;13.50;99.90
26224;DHT22;14820;48.682;8.890;2022-07-17T05:53:51;13.60;99.90
26224;DHT22;14820;48.682;8.890;2022-07-17T05:56:17;13.70;99.90
26224;DHT22;14820;48.682;8.890;2022-07-17T05:58:43;13.80;99.90
26224;DHT22;14820;48.682;8.890;2022-07-17T06:01:09;13.80;99.90
26224;DHT22;14820;48.682;8.890;2022-07-17T06:03:34;14.00;99.90
26224;DHT22;14820;48.682;8.890;2022-07-17T06:06:00;14.00;99.90
26224;DHT22;14820;48.682;8.890;2022-07-17T06:08:26;14.10;99.90
26224;DHT22;14820;48.682;8.890;2022-07-17T06:10:51;14.20;99.90
26224;DHT22;14820;48.682;8.890;2022-07-17T06:13:17;14.30;99.90
26224;DHT22;14820;48.682;8.890;2022-07-17T06:15:43;14.40;99.90
26224;DHT22;14820;48.682;8.890;2022-07-17T06:18:08;14.60;99.90
26224;DHT22;14820;48.682;8.890;2022-07-17T06:20:34;14.70;99.90
26224;DHT22;14820;48.682;8.890;2022-07-17T06:23:00;14.80;99.90
26224;DHT22;14820;48.682;8.890;2022-07-17T06:25:25;14.90;99.90
26224;DHT22;14820;48.682;8.890;2022-07-17T06:27:51;15.10;99.90
26224;DHT22;14820;48.682;8.890;2022-07-17T06:30:17;15.20;99.90
26224;DHT22;14820;48.682;8.890;2022-07-17T06:32:43;15.40;99.90
26224;DHT22;14820;48.682;8.890;2022-07-17T06:35:09;15.60;99.90
26224;DHT22;14820;48.682;8.890;2022-07-17T06:37:35;15.70;99.90
26224;DHT22;14820;48.682;8.890;2022-07-17T06:40:02;15.90;99.90
26224;DHT22;14820;48.682;8.890;2022-07-17T06:42:28;16.00;99.90
26224;DHT22;14820;48.682;8.890;2022-07-17T06:44:54;16.20;99.90
26224;DHT22;14820;48.682;8.890;2022-07-17T06:47:19;16.30;99.90
26224;DHT22;14820;48.682;8.890;2022-07-17T06:49:45;16.50;99.90
26224;DHT22;14820;48.682;8.890;2022-07-17T06:52:11;16.70;99.90
26224;DHT22;14820;48.682;8.890;2022-07-17T06:54:36;16.70;99.90
26224;DHT22;14820;48.682;8.890;2022-07-17T06:57:02;16.80;99.90
26224;DHT22;14820;48.682;8.890;2022-07-17T06:59:28;17.00;99.90
26224;DHT22;14820;48.682;8.890;2022-07-17T07:01:54;17.20;99.90
26224;DHT22;14820;48.682;8.890;2022-07-17T07:04:19;17.30;99.90
26224;DHT22;14820;48.682;8.890;2022-07-17T07:06:45;17.40;99.90
26224;DHT22;14820;48.682;8.890;2022-07-17T07:09:11;17.60;99.90
26224;DHT22;14820;48.682;8.890;2022-07-17T07:11:37;17.70;99.90
26224;DHT22;14820;48.682;8.890;2022-07-17T07:14:04;17.80;99.90
26224;DHT22;14820;48.682;8.890;2022-07-17T07:16:30;18.00;99.90
26224;DHT22;14820;48.682;8.890;2022-07-17T07:18:56;18.10;99.90
26224;DHT22;14820;48.682;8.890;2022-07-17T07:21:21;18.10;99.90
26224;DHT22;14820;48.682;8.890;2022-07-17T07:23:48;18.30;99.90
26224;DHT22;14820;48.682;8.890;2022-07-17T07:26:14;18.30;99.90
26224;DHT22;14820;48.682;8.890;2022-07-17T07:28:40;18.50;99.90
26224;DHT22;14820;48.682;8.890;2022-07-17T07:31:06;18.60;99.90
26224;DHT22;14820;48.682;8.890;2022-07-17T07:33:31;18.80;99.90
26224;DHT22;14820;48.682;8.890;2022-07-17T07:35:57;18.90;99.90
26224;DHT22;14820;48.682;8.890;2022-07-17T07:38:23;19.10;99.90
26224;DHT22;14820;48.682;8.890;2022-07-17T07:40:49;19.20;99.90
26224;DHT22;14820;48.682;8.890;2022-07-17T07:43:14;19.40;99.90
26224;DHT22;14820;48.682;8.890;2022-07-17T07:45:40;19.50;99.90
26224;DHT22;14820;48.682;8.890;2022-07-17T07:48:06;19.60;99.90
26224;DHT22;14820;48.682;8.890;2022-07-17T07:50:31;19.70;99.90
26224;DHT22;14820;48.682;8.890;2022-07-17T07:52:57;19.90;99.90
26224;DHT22;14820;48.682;8.890;2022-07-17T07:55:23;20.00;99.90
26224;DHT22;14820;48.682;8.890;2022-07-17T07:57:50;20.10;99.90
26224;DHT22;14820;48.682;8.890;2022-07-17T08:00:26;20.10;99.90
26224;DHT22;14820;48.682;8.890;2022-07-17T08:02:51;20.10;99.90
26224;DHT22;14820;48.682;8.890;2022-07-17T08:05:17;20.20;99.90
26224;DHT22;14820;48.682;8.890;2022-07-17T08:07:43;20.20;99.90
26224;DHT22;14820;48.682;8.890;2022-07-17T08:10:08;20.40;99.90
26224;DHT22;14820;48.682;8.890;2022-07-17T08:12:34;20.50;99.90
26224;DHT22;14820;48.682;8.890;2022-07-17T08:15:00;20.70;99.70
26224;DHT22;14820;48.682;8.890;2022-07-17T08:17:25;20.80;99.40
26224;DHT22;14820;48.682;8.890;2022-07-17T08:19:51;20.80;98.40
26224;DHT22;14820;48.682;8.890;2022-07-17T08:22:17;20.90;98.30
26224;DHT22;14820;48.682;8.890;2022-07-17T08:24:43;21.10;98.30
26224;DHT22;14820;48.682;8.890;2022-07-17T08:27:09;21.10;98.00
26224;DHT22;14820;48.682;8.890;2022-07-17T08:29:34;21.30;98.10
26224;DHT22;14820;48.682;8.890;2022-07-17T08:32:00;21.40;97.40
26224;DHT22;14820;48.682;8.890;2022-07-17T08:34:25;21.40;97.40
26224;DHT22;14820;48.682;8.890;2022-07-17T08:36:51;21.50;97.40
26224;DHT22;14820;48.682;8.890;2022-07-17T08:39:17;21.60;97.10
26224;DHT22;14820;48.682;8.890;2022-07-17T08:41:43;21.80;96.60
26224;DHT22;14820;48.682;8.890;2022-07-17T08:44:09;21.90;96.60
26224;DHT22;14820;48.682;8.890;2022-07-17T08:46:39;22.00;96.30
26224;DHT22;14820;48.682;8.890;2022-07-17T08:49:07;22.10;96.30
26224;DHT22;14820;48.682;8.890;2022-07-17T08:51:34;22.00;95.40
26224;DHT22;14820;48.682;8.890;2022-07-17T08:53:59;22.10;96.00
26224;DHT22;14820;48.682;8.890;2022-07-17T08:56:26;22.20;95.50
26224;DHT22;14820;48.682;8.890;2022-07-17T08:58:52;22.30;95.60
26224;DHT22;14820;48.682;8.890;2022-07-17T09:01:19;22.50;94.70
26224;DHT22;14820;48.682;8.890;2022-07-17T09:03:56;22.60;94.40
26224;DHT22;14820;48.682;8.890;2022-07-17T09:06:23;22.60;93.00
26224;DHT22;14820;48.682;8.890;2022-07-17T09:11:29;22.80;92.70
26224;DHT22;14820;48.682;8.890;2022-07-17T09:13:55;22.80;92.00
26224;DHT22;14820;48.682;8.890;2022-07-17T09:16:21;22.80;91.50
26224;DHT22;14820;48.682;8.890;2022-07-17T09:18:51;22.70;91.50
26224;DHT22;14820;48.682;8.890;2022-07-17T09:21:24;22.90;91.90
26224;DHT22;14820;48.682;8.890;2022-07-17T09:24:04;22.90;91.20
26224;DHT22;14820;48.682;8.890;2022-07-17T09:26:32;22.80;90.20
26224;DHT22;14820;48.682;8.890;2022-07-17T09:29:00;22.60;90.70
26224;DHT22;14820;48.682;8.890;2022-07-17T09:31:31;22.70;91.50
26224;DHT22;14820;48.682;8.890;2022-07-17T09:33:58;22.70;90.80
26224;DHT22;14820;48.682;8.890;2022-07-17T09:36:24;22.80;90.40
26224;DHT22;14820;48.682;8.890;2022-07-17T09:38:54;22.90;90.10
26224;DHT22;14820;48.682;8.890;2022-07-17T09:41:22;23.10;89.90
26224;DHT22;14820;48.682;8.890;2022-07-17T09:43:53;23.10;90.30
26224;DHT22;14820;48.682;8.890;2022-07-17T09:48:47;23.40;90.40
26224;DHT22;14820;48.682;8.890;2022-07-17T09:51:33;23.50;89.10
26224;DHT22;14820;48.682;8.890;2022-07-17T09:54:01;23.60;88.80
26224;DHT22;14820;48.682;8.890;2022-07-17T09:56:29;23.70;88.30
26224;DHT22;14820;48.682;8.890;2022-07-17T10:01:25;23.90;86.60
26224;DHT22;14820;48.682;8.890;2022-07-17T10:03:52;24.00;86.40
26224;DHT22;14820;48.682;8.890;2022-07-17T10:06:20;24.00;84.60
26224;DHT22;14820;48.682;8.890;2022-07-17T10:08:46;24.10;83.90
26224;DHT22;14820;48.682;8.890;2022-07-17T10:11:13;24.10;83.40
26224;DHT22;14820;48.682;8.890;2022-07-17T10:13:42;24.10;83.10
26224;DHT22;14820;48.682;8.890;2022-07-17T10:16:09;24.20;82.40
26224;DHT22;14820;48.682;8.890;2022-07-17T10:18:44;24.10;82.00
26224;DHT22;14820;48.682;8.890;2022-07-17T10:21:16;24.20;82.40
26224;DHT22;14820;48.682;8.890;2022-07-17T10:26:32;24.10;81.80
26224;DHT22;14820;48.682;8.890;2022-07-17T10:28:58;24.20;81.90
26224;DHT22;14820;48.682;8.890;2022-07-17T10:31:25;24.20;81.90
26224;DHT22;14820;48.682;8.890;2022-07-17T10:33:59;24.40;80.60
26224;DHT22;14820;48.682;8.890;2022-07-17T10:36:40;24.50;79.30
26224;DHT22;14820;48.682;8.890;2022-07-17T10:39:14;24.60;78.50
26224;DHT22;14820;48.682;8.890;2022-07-17T10:41:41;24.70;76.50
26224;DHT22;14820;48.682;8.890;2022-07-17T10:44:07;24.80;77.40
26224;DHT22;14820;48.682;8.890;2022-07-17T10:46:33;25.00;76.20
26224;DHT22;14820;48.682;8.890;2022-07-17T10:49:01;25.10;74.00
26224;DHT22;14820;48.682;8.890;2022-07-17T10:51:30;25.10;72.40
26224;DHT22;14820;48.682;8.890;2022-07-17T10:53:57;25.10;70.90
26224;DHT22;14820;48.682;8.890;2022-07-17T10:56:26;25.00;71.40
26224;DHT22;14820;48.682;8.890;2022-07-17T10:58:52;25.00;70.10
26224;DHT22;14820;48.682;8.890;2022-07-17T11:01:22;25.10;69.50
26224;DHT22;14820;48.682;8.890;2022-07-17T11:03:51;25.10;70.40
26224;DHT22;14820;48.682;8.890;2022-07-17T11:06:39;25.20;69.60
26224;DHT22;14820;48.682;8.890;2022-07-17T11:09:09;25.20;69.30
26224;DHT22;14820;48.682;8.890;2022-07-17T11:11:40;25.20;69.10
26224;DHT22;14820;48.682;8.890;2022-07-17T11:14:11;25.30;69.20
26224;DHT22;14820;48.682;8.890;2022-07-17T11:16:37;25.40;66.80
26224;DHT22;14820;48.682;8.890;2022-07-17T11:19:09;25.30;68.10
26224;DHT22;14820;48.682;8.890;2022-07-17T11:21:45;25.50;65.70
26224;DHT22;14820;48.682;8.890;2022-07-17T11:24:10;25.50;65.80
26224;DHT22;14820;48.682;8.890;2022-07-17T11:26:36;25.50;65.20
26224;DHT22;14820;48.682;8.890;2022-07-17T11:29:02;25.60;64.50
26224;DHT22;14820;48.682;8.890;2022-07-17T11:31:28;25.60;62.50
26224;DHT22;14820;48.682;8.890;2022-07-17T11:34:00;25.60;61.00
26224;DHT22;14820;48.682;8.890;2022-07-17T11:36:33;25.60;59.30
26224;DHT22;14820;48.682;8.890;2022-07-17T11:39:17;25.40;60.10
26224;DHT22;14820;48.682;8.890;2022-07-17T11:41:46;25.40;61.90
26224;DHT22;14820;48.682;8.890;2022-07-17T11:44:16;25.50;61.20
26224;DHT22;14820;48.682;8.890;2022-07-17T11:46:44;25.60;62.60
26224;DHT22;14820;48.682;8.890;2022-07-17T11:49:11;25.70;60.50
26224;DHT22;14820;48.682;8.890;2022-07-17T11:51:48;25.60;61.20
26224;DHT22;14820;48.682;8.890;2022-07-17T11:54:15;25.40;59.10
26224;DHT22;14820;48.682;8.890;2022-07-17T11:56:42;25.30;59.90
26224;DHT22;14820;48.682;8.890;2022-07-17T11:59:09;25.40;61.70
26224;DHT22;14820;48.682;8.890;2022-07-17T12:01:43;25.70;60.40
26224;DHT22;14820;48.682;8.890;2022-07-17T12:04:11;25.70;59.70
26224;DHT22;14820;48.682;8.890;2022-07-17T12:06:37;25.70;59.20
26224;DHT22;14820;48.682;8.890;2022-07-17T12:09:05;26.00;58.00
26224;DHT22;14820;48.682;8.890;2022-07-17T12:11:30;26.10;58.30
26224;DHT22;14820;48.682;8.890;2022-07-17T12:14:03;26.20;58.50
26224;DHT22;14820;48.682;8.890;2022-07-17T12:16:31;26.20;58.80
26224;DHT22;14820;48.682;8.890;2022-07-17T12:19:01;26.10;58.60
26224;DHT22;14820;48.682;8.890;2022-07-17T12:21:30;26.30;57.70
26224;DHT22;14820;48.682;8.890;2022-07-17T12:23:58;26.30;57.60
26224;DHT22;14820;48.682;8.890;2022-07-17T12:26:25;26.40;57.40
26224;DHT22;14820;48.682;8.890;2022-07-17T12:28:50;26.30;56.50
26224;DHT22;14820;48.682;8.890;2022-07-17T12:31:16;26.20;56.20
26224;DHT22;14820;48.682;8.890;2022-07-17T12:33:43;26.30;55.80
26224;DHT22;14820;48.682;8.890;2022-07-17T12:36:09;26.20;55.50
26224;DHT22;14820;48.682;8.890;2022-07-17T12:38:35;26.30;56.60
26224;DHT22;14820;48.682;8.890;2022-07-17T12:41:01;26.40;55.80
26224;DHT22;14820;48.682;8.890;2022-07-17T12:43:26;26.50;53.80
26224;DHT22;14820;48.682;8.890;2022-07-17T12:45:52;26.60;55.20
26224;DHT22;14820;48.682;8.890;2022-07-17T12:48:18;26.60;55.20
26224;DHT22;14820;48.682;8.890;2022-07-17T12:50:44;26.70;55.20
26224;DHT22;14820;48.682;8.890;2022-07-17T12:53:10;26.90;55.00
26224;DHT22;14820;48.682;8.890;2022-07-17T12:55:36;27.00;54.70
26224;DHT22;14820;48.682;8.890;2022-07-17T12:58:05;27.00;53.00
26224;DHT22;14820;48.682;8.890;2022-07-17T13:00:31;27.00;53.70
26224;DHT22;14820;48.682;8.890;2022-07-17T13:02:57;27.00;52.70
26224;DHT22;14820;48.682;8.890;2022-07-17T13:05:22;27.00;52.70
26224;DHT22;14820;48.682;8.890;2022-07-17T13:07:49;27.00;52.70
26224;DHT22;14820;48.682;8.890;2022-07-17T13:10:14;27.00;52.70
26224;DHT22;14820;48.682;8.890;2022-07-17T13:12:40;27.10;50.60
26224;DHT22;14820;48.682;8.890;2022-07-17T13:15:06;27.10;50.10
26224;DHT22;14820;48.682;8.890;2022-07-17T13:17:32;27.10;50.90
26224;DHT22;14820;48.682;8.890;2022-07-17T13:19:58;27.10;51.10
26224;DHT22;14820;48.682;8.890;2022-07-17T13:22:23;27.00;51.00
26224;DHT22;14820;48.682;8.890;2022-07-17T13:24:49;27.10;52.60
26224;DHT22;14820;48.682;8.890;2022-07-17T13:27:15;27.30;52.50
26224;DHT22;14820;48.682;8.890;2022-07-17T13:29:40;27.30;52.20
26224;DHT22;14820;48.682;8.890;2022-07-17T13:32:06;27.20;52.10
26224;DHT22;14820;48.682;8.890;2022-07-17T13:34:32;27.30;52.30
26224;DHT22;14820;48.682;8.890;2022-07-17T13:36:58;27.30;52.30
26224;DHT22;14820;48.682;8.890;2022-07-17T13:39:24;27.30;51.30
26224;DHT22;14820;48.682;8.890;2022-07-17T13:41:50;27.20;51.40
26224;DHT22;14820;48.682;8.890;2022-07-17T13:44:15;27.20;52.00
26224;DHT22;14820;48.682;8.890;2022-07-17T13:46:41;27.30;50.50
26224;DHT22;14820;48.682;8.890;2022-07-17T13:49:07;27.30;50.60
26224;DHT22;14820;48.682;8.890;2022-07-17T13:51:34;27.30;50.70
26224;DHT22;14820;48.682;8.890;2022-07-17T13:54:01;27.30;50.30
26224;DHT22;14820;48.682;8.890;2022-07-17T13:56:26;27.20;48.90
26224;DHT22;14820;48.682;8.890;2022-07-17T13:58:52;27.20;50.40
26224;DHT22;14820;48.682;8.890;2022-07-17T14:01:18;27.30;49.60
26224;DHT22;14820;48.682;8.890;2022-07-17T14:03:44;27.30;50.20
26224;DHT22;14820;48.682;8.890;2022-07-17T14:06:10;27.20;48.80
26224;DHT22;14820;48.682;8.890;2022-07-17T14:08:36;27.20;48.80
26224;DHT22;14820;48.682;8.890;2022-07-17T14:11:03;27.10;49.10
26224;DHT22;14820;48.682;8.890;2022-07-17T14:13:29;27.10;48.90
26224;DHT22;14820;48.682;8.890;2022-07-17T14:15:55;27.10;49.30
26224;DHT22;14820;48.682;8.890;2022-07-17T14:18:21;27.10;49.40
26224;DHT22;14820;48.682;8.890;2022-07-17T14:20:47;27.10;49.30
26224;DHT22;14820;48.682;8.890;2022-07-17T14:23:12;27.10;48.50
26224;DHT22;14820;48.682;8.890;2022-07-17T14:25:38;27.10;48.60
26224;DHT22;14820;48.682;8.890;2022-07-17T14:28:04;27.10;48.00
26224;DHT22;14820;48.682;8.890;2022-07-17T14:30:30;27.10;48.50
26224;DHT22;14820;48.682;8.890;2022-07-17T14:32:57;27.10;48.40
26224;DHT22;14820;48.682;8.890;2022-07-17T14:35:23;27.00;47.70
26224;DHT22;14820;48.682;8.890;2022-07-17T14:37:49;27.10;47.70
26224;DHT22;14820;48.682;8.890;2022-07-17T14:40:14;27.10;47.90
26224;DHT22;14820;48.682;8.890;2022-07-17T14:42:41;27.10;47.90
26224;DHT22;14820;48.682;8.890;2022-07-17T14:45:08;27.10;47.80
26224;DHT22;14820;48.682;8.890;2022-07-17T14:47:34;27.00;47.30
26224;DHT22;14820;48.682;8.890;2022-07-17T14:50:00;27.00;47.80
26224;DHT22;14820;48.682;8.890;2022-07-17T14:52:25;27.00;48.50
26224;DHT22;14820;48.682;8.890;2022-07-17T14:54:51;27.00;47.90
26224;DHT22;14820;48.682;8.890;2022-07-17T14:57:17;27.00;47.20
26224;DHT22;14820;48.682;8.890;2022-07-17T14:59:42;27.00;46.90
26224;DHT22;14820;48.682;8.890;2022-07-17T15:02:08;27.00;47.70
26224;DHT22;14820;48.682;8.890;2022-07-17T15:04:34;27.00;47.30
26224;DHT22;14820;48.682;8.890;2022-07-17T15:07:03;27.10;47.70
26224;DHT22;14820;48.682;8.890;2022-07-17T15:09:29;27.10;47.50
26224;DHT22;14820;48.682;8.890;2022-07-17T15:11:54;27.10;47.50
26224;DHT22;14820;48.682;8.890;2022-07-17T15:14:20;27.10;47.30
26224;DHT22;14820;48.682;8.890;2022-07-17T15:16:46;27.10;46.90
26224;DHT22;14820;48.682;8.890;2022-07-17T15:19:12;27.10;47.00
26224;DHT22;14820;48.682;8.890;2022-07-17T15:21:38;27.10;46.40
26224;DHT22;14820;48.682;8.890;2022-07-17T15:24:04;27.00;46.50
26224;DHT22;14820;48.682;8.890;2022-07-17T15:26:30;27.00;46.80
26224;DHT22;14820;48.682;8.890;2022-07-17T15:28:57;27.00;46.20
26224;DHT22;14820;48.682;8.890;2022-07-17T15:31:23;27.10;46.10
26224;DHT22;14820;48.682;8.890;2022-07-17T15:33:49;27.00;47.00
26224;DHT22;14820;48.682;8.890;2022-07-17T15:36:15;27.10;47.00